sensor_id;sensor_type;location;lat;lon;timestamp;temperature;humidity
8820;DHT22;4446;50.876;4.736;2023-04-10T00:01:04;8.30;99.90
8820;DHT22;4446;50.876;4.736;2023-04-10T00:03:31;8.20;99.90
8820;DHT22;4446;50.876;4.736;2023-04-10T00:05:59;8.20;99.90
8820;DHT22;4446;50.876;4.736;2023-04-10T00:08:26;8.20;99.90
8820;DHT22;4446;50.876;4.736;2023-04-10T00:10:53;8.30;99.90
8820;DHT22;4446;50.876;4.736;2023-04-10T00:13:21;8.30;99.90
8820;DHT22;4446;50.876;4.736;2023-04-10T00:15:48;8.30;99.90
8820;DHT22;4446;50.876;4.736;2023-04-10T00:18:15;8.30;99.90
8820;DHT22;4446;50.876;4.736;2023-04-10T00:20:42;8.40;99.90
8820;DHT22;4446;50.876;4.736;2023-04-10T00:23:10;8.30;99.90
8820;DHT22;4446;50.876;4.736;2023-04-10T00:25:37;8.30;99.90
8820;DHT22;4446;50.876;4.736;2023-04-10T00:28:04;8.40;99.90
8820;DHT22;4446;50.876;4.736;2023-04-10T00:30:31;8.40;99.90
8820;DHT22;4446;50.876;4.736;2023-04-10T00:32:58;8.30;99.90
8820;DHT22;4446;50.876;4.736;2023-04-10T00:35:25;8.30;99.90
8820;DHT22;4446;50.876;4.736;2023-04-10T00:37:52;8.30;99.90
8820;DHT22;4446;50.876;4.736;2023-04-10T00:40:22;8.30;99.90
8820;DHT22;4446;50.876;4.736;2023-04-10T00:42:50;8.20;99.90
8820;DHT22;4446;50.876;4.736;2023-04-10T00:45:17;8.30;99.90
8820;DHT22;4446;50.876;4.736;2023-04-10T00:47:44;8.30;99.90
8820;DHT22;4446;50.876;4.736;2023-04-10T00:50:11;8.30;99.90
8820;DHT22;4446;50.876;4.736;2023-04-10T00:52:38;8.10;99.90
8820;DHT22;4446;50.876;4.736;2023-04-10T00:55:05;8.10;99.90
8820;DHT22;4446;50.876;4.736;2023-04-10T00:57:34;8.10;99.90
8820;DHT22;4446;50.876;4.736;2023-04-10T01:00:02;8.10;99.90
8820;DHT22;4446;50.876;4.736;2023-04-10T01:02:29;7.90;99.90
8820;DHT22;4446;50.876;4.736;2023-04-10T01:04:57;7.90;99.90
8820;DHT22;4446;50.876;4.736;2023-04-10T01:07:34;8.00;99.90
8820;DHT22;4446;50.876;4.736;2023-04-10T01:10:09;8.00;99.90
8820;DHT22;4446;50.876;4.736;2023-04-10T01:12:51;8.00;99.90
8820;DHT22;4446;50.876;4.736;2023-04-10T01:15:21;8.00;99.90
8820;DHT22;4446;50.876;4.736;2023-04-10T01:17:51;8.10;99.90
8820;DHT22;4446;50.876;4.736;2023-04-10T01:20:22;8.20;99.90
8820;DHT22;4446;50.876;4.736;2023-04-10T01:25:50;8.20;99.90
8820;DHT22;4446;50.876;4.736;2023-04-10T01:28:41;8.30;99.90
8820;DHT22;4446;50.876;4.736;2023-04-10T01:31:12;8.30;99.90
8820;DHT22;4446;50.876;4.736;2023-04-10T01:33:47;8.20;99.90
8820;DHT22;4446;50.876;4.736;2023-04-10T01:36:21;8.10;99.90
8820;DHT22;4446;50.876;4.736;2023-04-10T01:38:50;7.90;99.90
8820;DHT22;4446;50.876;4.736;2023-04-10T01:41:20;7.80;99.90
8820;DHT22;4446;50.876;4.736;2023-04-10T01:43:51;7.70;99.90
8820;DHT22;4446;50.876;4.736;2023-04-10T01:46:20;7.70;99.90
8820;DHT22;4446;50.876;4.736;2023-04-10T01:48:49;7.80;99.90
8820;DHT22;4446;50.876;4.736;2023-04-10T01:51:17;7.80;99.90
8820;DHT22;4446;50.876;4.736;2023-04-10T01:53:45;7.70;99.90
8820;DHT22;4446;50.876;4.736;2023-04-10T01:56:14;7.70;99.90
8820;DHT22;4446;50.876;4.736;2023-04-10T01:58:41;7.70;99.90
8820;DHT22;4446;50.876;4.736;2023-04-10T02:01:10;7.80;99.90
8820;DHT22;4446;50.876;4.736;2023-04-10T02:03:37;7.80;99.90
8820;DHT22;4446;50.876;4.736;2023-04-10T02:06:13;7.80;99.90
8820;DHT22;4446;50.876;4.736;2023-04-10T02:08:47;7.80;99.90
8820;DHT22;4446;50.876;4.736;2023-04-10T02:11:23;7.70;99.90
8820;DHT22;4446;50.876;4.736;2023-04-10T02:13:57;7.70;99.90
8820;DHT22;4446;50.876;4.736;2023-04-10T02:16:28;7.60;99.90
8820;DHT22;4446;50.876;4.736;2023-04-10T02:18:58;7.50;99.90
8820;DHT22;4446;50.876;4.736;2023-04-10T02:21:26;7.50;99.90
8820;DHT22;4446;50.876;4.736;2023-04-10T02:23:56;7.50;99.90
8820;DHT22;4446;50.876;4.736;2023-04-10T02:26:22;7.40;99.90
8820;DHT22;4446;50.876;4.736;2023-04-10T02:28:49;7.50;99.90
8820;DHT22;4446;50.876;4.736;2023-04-10T02:31:16;7.50;99.90
8820;DHT22;4446;50.876;4.736;2023-04-10T02:33:44;7.40;99.90
8820;DHT22;4446;50.876;4.736;2023-04-10T02:36:12;7.40;99.90
8820;DHT22;4446;50.876;4.736;2023-04-10T02:38:38;7.30;99.90
8820;DHT22;4446;50.876;4.736;2023-04-10T02:41:05;7.30;99.90
8820;DHT22;4446;50.876;4.736;2023-04-10T02:43:32;7.30;99.90
8820;DHT22;4446;50.876;4.736;2023-04-10T02:45:59;7.40;99.90
8820;DHT22;4446;50.876;4.736;2023-04-10T02:48:26;7.40;99.90
8820;DHT22;4446;50.876;4.736;2023-04-10T02:50:56;7.30;99.90
8820;DHT22;4446;50.876;4.736;2023-04-10T02:53:23;7.30;99.90
8820;DHT22;4446;50.876;4.736;2023-04-10T02:55:51;7.30;99.90
8820;DHT22;4446;50.876;4.736;2023-04-10T02:58:19;7.20;99.90
8820;DHT22;4446;50.876;4.736;2023-04-10T03:00:47;7.10;99.90
8820;DHT22;4446;50.876;4.736;2023-04-10T03:03:15;7.00;99.90
8820;DHT22;4446;50.876;4.736;2023-04-10T03:05:42;6.90;99.90
8820;DHT22;4446;50.876;4.736;2023-04-10T03:08:12;6.90;99.90
8820;DHT22;4446;50.876;4.736;2023-04-10T03:10:41;6.80;99.90
8820;DHT22;4446;50.876;4.736;2023-04-10T03:13:08;6.70;99.90
8820;DHT22;4446;50.876;4.736;2023-04-10T03:15:35;6.70;99.90
8820;DHT22;4446;50.876;4.736;2023-04-10T03:18:03;6.60;99.90
8820;DHT22;4446;50.876;4.736;2023-04-10T03:20:30;6.50;99.90
8820;DHT22;4446;50.876;4.736;2023-04-10T03:22:57;6.50;99.90
8820;DHT22;4446;50.876;4.736;2023-04-10T03:25:25;6.50;99.90
8820;DHT22;4446;50.876;4.736;2023-04-10T03:27:52;6.50;99.90
8820;DHT22;4446;50.876;4.736;2023-04-10T03:30:20;6.50;99.90
8820;DHT22;4446;50.876;4.736;2023-04-10T03:32:47;6.40;99.90
8820;DHT22;4446;50.876;4.736;2023-04-10T03:35:14;6.40;99.90
8820;DHT22;4446;50.876;4.736;2023-04-10T03:37:41;6.40;99.90
8820;DHT22;4446;50.876;4.736;2023-04-10T03:40:08;6.40;99.90
8820;DHT22;4446;50.876;4.736;2023-04-10T03:42:37;6.50;99.90
8820;DHT22;4446;50.876;4.736;2023-04-10T03:45:05;6.50;99.90
8820;DHT22;4446;50.876;4.736;2023-04-10T03:47:33;6.60;99.90
8820;DHT22;4446;50.876;4.736;2023-04-10T03:50:00;6.60;99.90
8820;DHT22;4446;50.876;4.736;2023-04-10T03:52:27;6.60;99.90
8820;DHT22;4446;50.876;4.736;2023-04-10T03:54:54;6.60;99.90
8820;DHT22;4446;50.876;4.736;2023-04-10T03:57:21;6.70;99.90
8820;DHT22;4446;50.876;4.736;2023-04-10T03:59:49;6.60;99.90
8820;DHT22;4446;50.876;4.736;2023-04-10T04:02:16;6.60;99.90
8820;DHT22;4446;50.876;4.736;2023-04-10T04:04:43;6.70;99.90
8820;DHT22;4446;50.876;4.736;2023-04-10T04:07:10;6.70;99.90
8820;DHT22;4446;50.876;4.736;2023-04-10T04:09:38;6.70;99.90
8820;DHT22;4446;50.876;4.736;2023-04-10T04:12:05;6.70;99.90
8820;DHT22;4446;50.876;4.736;2023-04-10T04:14:33;6.70;99.90
8820;DHT22;4446;50.876;4.736;2023-04-10T04:17:01;6.70;99.90
8820;DHT22;4446;50.876;4.736;2023-04-10T04:19:28;6.70;99.90
8820;DHT22;4446;50.876;4.736;2023-04-10T04:21:55;6.70;99.90
8820;DHT22;4446;50.876;4.736;2023-04-10T04:24:22;6.70;99.90
8820;DHT22;4446;50.876;4.736;2023-04-10T04:26:49;6.70;99.90
8820;DHT22;4446;50.876;4.736;2023-04-10T04:29:16;6.80;99.90
8820;DHT22;4446;50.876;4.736;2023-04-10T04:31:43;6.80;99.90
8820;DHT22;4446;50.876;4.736;2023-04-10T04:34:11;6.90;99.90
8820;DHT22;4446;50.876;4.736;2023-04-10T04:36:38;6.90;99.90
8820;DHT22;4446;50.876;4.736;2023-04-10T04:39:05;7.00;99.90
8820;DHT22;4446;50.876;4.736;2023-04-10T04:41:32;7.10;99.90
8820;DHT22;4446;50.876;4.736;2023-04-10T04:44:00;7.20;99.90
8820;DHT22;4446;50.876;4.736;2023-04-10T04:46:27;7.20;99.90
8820;DHT22;4446;50.876;4.736;2023-04-10T04:48:54;7.20;99.90
8820;DHT22;4446;50.876;4.736;2023-04-10T04:51:22;7.30;99.90
8820;DHT22;4446;50.876;4.736;2023-04-10T04:53:50;7.30;99.90
8820;DHT22;4446;50.876;4.736;2023-04-10T04:56:17;7.40;99.90
8820;DHT22;4446;50.876;4.736;2023-04-10T04:58:44;7.40;99.90
8820;DHT22;4446;50.876;4.736;2023-04-10T05:01:10;7.50;99.90
8820;DHT22;4446;50.876;4.736;2023-04-10T05:03:37;7.40;99.90
8820;DHT22;4446;50.876;4.736;2023-04-10T05:06:05;7.40;99.90
8820;DHT22;4446;50.876;4.736;2023-04-10T05:08:33;7.40;99.90
8820;DHT22;4446;50.876;4.736;2023-04-10T05:11:00;7.40;99.90
8820;DHT22;4446;50.876;4.736;2023-04-10T05:13:27;7.50;99.90
8820;DHT22;4446;50.876;4.736;2023-04-10T05:15:54;7.50;99.90
8820;DHT22;4446;50.876;4.736;2023-04-10T05:18:20;7.50;99.90
8820;DHT22;4446;50.876;4.736;2023-04-10T05:20:48;7.50;99.90
8820;DHT22;4446;50.876;4.736;2023-04-10T05:23:15;7.50;99.90
8820;DHT22;4446;50.876;4.736;2023-04-10T05:25:43;7.50;99.90
8820;DHT22;4446;50.876;4.736;2023-04-10T05:28:10;7.50;99.90
8820;DHT22;4446;50.876;4.736;2023-04-10T05:30:37;7.70;99.90
8820;DHT22;4446;50.876;4.736;2023-04-10T05:33:04;7.70;99.90
8820;DHT22;4446;50.876;4.736;2023-04-10T05:35:31;7.70;99.90
8820;DHT22;4446;50.876;4.736;2023-04-10T05:37:58;7.80;99.90
8820;DHT22;4446;50.876;4.736;2023-04-10T05:40:25;7.80;99.90
8820;DHT22;4446;50.876;4.736;2023-04-10T05:42:53;7.90;99.90
8820;DHT22;4446;50.876;4.736;2023-04-10T05:45:20;7.90;99.90
8820;DHT22;4446;50.876;4.736;2023-04-10T05:47:47;8.00;99.90
8820;DHT22;4446;50.876;4.736;2023-04-10T05:50:14;8.10;99.90
8820;DHT22;4446;50.876;4.736;2023-04-10T05:52:41;8.10;99.90
8820;DHT22;4446;50.876;4.736;2023-04-10T05:55:08;8.10;99.90
8820;DHT22;4446;50.876;4.736;2023-04-10T05:57:35;8.20;99.90
8820;DHT22;4446;50.876;4.736;2023-04-10T06:00:05;8.30;99.90
8820;DHT22;4446;50.876;4.736;2023-04-10T06:02:32;8.40;99.90
8820;DHT22;4446;50.876;4.736;2023-04-10T06:05:00;8.50;99.90
8820;DHT22;4446;50.876;4.736;2023-04-10T06:07:27;8.50;99.90
8820;DHT22;4446;50.876;4.736;2023-04-10T06:09:53;8.60;99.90
8820;DHT22;4446;50.876;4.736;2023-04-10T06:12:20;8.70;99.90
8820;DHT22;4446;50.876;4.736;2023-04-10T06:14:47;8.80;99.90
8820;DHT22;4446;50.876;4.736;2023-04-10T06:17:16;8.90;99.90
8820;DHT22;4446;50.876;4.736;2023-04-10T06:19:45;9.00;99.90
8820;DHT22;4446;50.876;4.736;2023-04-10T06:22:12;9.10;99.90
8820;DHT22;4446;50.876;4.736;2023-04-10T06:24:39;9.10;99.90
8820;DHT22;4446;50.876;4.736;2023-04-10T06:27:06;9.20;99.90
8820;DHT22;4446;50.876;4.736;2023-04-10T06:29:33;9.40;99.90
8820;DHT22;4446;50.876;4.736;2023-04-10T06:32:00;9.40;99.90
8820;DHT22;4446;50.876;4.736;2023-04-10T06:34:28;9.50;99.90
8820;DHT22;4446;50.876;4.736;2023-04-10T06:36:55;9.50;99.90
8820;DHT22;4446;50.876;4.736;2023-04-10T06:39:22;9.50;99.90
8820;DHT22;4446;50.876;4.736;2023-04-10T06:41:49;9.50;99.90
8820;DHT22;4446;50.876;4.736;2023-04-10T06:44:16;9.70;99.90
8820;DHT22;4446;50.876;4.736;2023-04-10T06:46:43;9.70;99.90
8820;DHT22;4446;50.876;4.736;2023-04-10T06:49:10;9.80;99.90
8820;DHT22;4446;50.876;4.736;2023-04-10T06:51:38;9.90;99.90
8820;DHT22;4446;50.876;4.736;2023-04-10T06:54:05;10.00;99.90
8820;DHT22;4446;50.876;4.736;2023-04-10T06:56:32;10.10;99.90
8820;DHT22;4446;50.876;4.736;2023-04-10T06:58:59;10.10;99.90
8820;DHT22;4446;50.876;4.736;2023-04-10T07:01:26;10.20;99.90
8820;DHT22;4446;50.876;4.736;2023-04-10T07:03:53;10.30;99.90
8820;DHT22;4446;50.876;4.736;2023-04-10T07:06:21;10.30;99.90
8820;DHT22;4446;50.876;4.736;2023-04-10T07:08:50;10.50;99.90
8820;DHT22;4446;50.876;4.736;2023-04-10T07:11:17;10.60;99.90
8820;DHT22;4446;50.876;4.736;2023-04-10T07:13:43;10.70;99.90
8820;DHT22;4446;50.876;4.736;2023-04-10T07:16:10;10.70;99.90
8820;DHT22;4446;50.876;4.736;2023-04-10T07:18:37;10.80;99.90
8820;DHT22;4446;50.876;4.736;2023-04-10T07:21:09;10.80;99.90
8820;DHT22;4446;50.876;4.736;2023-04-10T07:23:37;10.90;99.90
8820;DHT22;4446;50.876;4.736;2023-04-10T07:26:06;11.00;99.90
8820;DHT22;4446;50.876;4.736;2023-04-10T07:28:33;11.20;99.90
8820;DHT22;4446;50.876;4.736;2023-04-10T07:31:01;11.30;99.90
8820;DHT22;4446;50.876;4.736;2023-04-10T07:33:27;11.30;99.90
8820;DHT22;4446;50.876;4.736;2023-04-10T07:35:55;11.40;99.90
8820;DHT22;4446;50.876;4.736;2023-04-10T07:38:21;11.60;99.90
8820;DHT22;4446;50.876;4.736;2023-04-10T07:40:55;11.70;99.90
8820;DHT22;4446;50.876;4.736;2023-04-10T07:43:23;11.70;99.90
8820;DHT22;4446;50.876;4.736;2023-04-10T07:45:50;11.80;99.90
8820;DHT22;4446;50.876;4.736;2023-04-10T07:48:17;11.90;99.90
8820;DHT22;4446;50.876;4.736;2023-04-10T07:50:44;11.90;99.90
8820;DHT22;4446;50.876;4.736;2023-04-10T07:53:11;12.10;99.90
8820;DHT22;4446;50.876;4.736;2023-04-10T07:55:38;12.20;99.90
8820;DHT22;4446;50.876;4.736;2023-04-10T07:58:05;12.10;99.90
8820;DHT22;4446;50.876;4.736;2023-04-10T08:00:33;12.10;99.90
8820;DHT22;4446;50.876;4.736;2023-04-10T08:03:00;12.20;99.90
8820;DHT22;4446;50.876;4.736;2023-04-10T08:05:27;12.30;99.90
8820;DHT22;4446;50.876;4.736;2023-04-10T08:07:54;12.40;99.90
8820;DHT22;4446;50.876;4.736;2023-04-10T08:10:21;12.30;99.90
8820;DHT22;4446;50.876;4.736;2023-04-10T08:12:48;12.40;99.90
8820;DHT22;4446;50.876;4.736;2023-04-10T08:15:16;12.40;99.90
8820;DHT22;4446;50.876;4.736;2023-04-10T08:17:44;12.50;99.90
8820;DHT22;4446;50.876;4.736;2023-04-10T08:20:12;12.50;99.90
8820;DHT22;4446;50.876;4.736;2023-04-10T08:22:39;12.60;99.90
8820;DHT22;4446;50.876;4.736;2023-04-10T08:25:06;12.70;99.90
8820;DHT22;4446;50.876;4.736;2023-04-10T08:27:33;12.80;99.90
8820;DHT22;4446;50.876;4.736;2023-04-10T08:30:00;12.80;99.90
8820;DHT22;4446;50.876;4.736;2023-04-10T08:32:27;13.00;99.90
8820;DHT22;4446;50.876;4.736;2023-04-10T08:34:56;13.00;99.90
8820;DHT22;4446;50.876;4.736;2023-04-10T08:37:24;13.20;99.90
8820;DHT22;4446;50.876;4.736;2023-04-10T08:39:51;13.30;99.90
8820;DHT22;4446;50.876;4.736;2023-04-10T08:42:17;13.30;99.90
8820;DHT22;4446;50.876;4.736;2023-04-10T08:44:47;13.50;99.90
8820;DHT22;4446;50.876;4.736;2023-04-10T08:47:16;13.70;99.90
8820;DHT22;4446;50.876;4.736;2023-04-10T08:49:48;13.80;99.90
8820;DHT22;4446;50.876;4.736;2023-04-10T08:52:20;14.00;99.90
8820;DHT22;4446;50.876;4.736;2023-04-10T08:54:51;14.00;99.90
8820;DHT22;4446;50.876;4.736;2023-04-10T08:57:19;14.10;99.90
8820;DHT22;4446;50.876;4.736;2023-04-10T08:59:47;14.10;99.90
8820;DHT22;4446;50.876;4.736;2023-04-10T09:02:14;14.30;99.90
8820;DHT22;4446;50.876;4.736;2023-04-10T09:04:47;14.40;99.90
8820;DHT22;4446;50.876;4.736;2023-04-10T09:07:14;14.30;99.90
8820;DHT22;4446;50.876;4.736;2023-04-10T09:09:43;14.40;99.90
8820;DHT22;4446;50.876;4.736;2023-04-10T09:12:12;14.40;99.90
8820;DHT22;4446;50.876;4.736;2023-04-10T09:14:40;14.40;99.90
8820;DHT22;4446;50.876;4.736;2023-04-10T09:17:13;14.40;99.90
8820;DHT22;4446;50.876;4.736;2023-04-10T09:19:40;14.50;99.90
8820;DHT22;4446;50.876;4.736;2023-04-10T09:22:08;14.50;99.90
8820;DHT22;4446;50.876;4.736;2023-04-10T09:24:36;14.60;99.90
8820;DHT22;4446;50.876;4.736;2023-04-10T09:27:07;14.50;99.90
8820;DHT22;4446;50.876;4.736;2023-04-10T09:29:42;14.60;99.90
8820;DHT22;4446;50.876;4.736;2023-04-10T09:32:10;14.70;99.90
8820;DHT22;4446;50.876;4.736;2023-04-10T09:34:51;14.90;99.90
8820;DHT22;4446;50.876;4.736;2023-04-10T09:37:19;15.10;99.90
8820;DHT22;4446;50.876;4.736;2023-04-10T09:39:47;15.20;99.90
8820;DHT22;4446;50.876;4.736;2023-04-10T09:42:29;15.30;99.90
8820;DHT22;4446;50.876;4.736;2023-04-10T09:44:57;15.50;99.90
8820;DHT22;4446;50.876;4.736;2023-04-10T09:47:24;15.60;99.90
8820;DHT22;4446;50.876;4.736;2023-04-10T09:49:53;15.60;99.90
8820;DHT22;4446;50.876;4.736;2023-04-10T09:52:21;15.60;99.90
8820;DHT22;4446;50.876;4.736;2023-04-10T09:54:50;15.50;99.90
8820;DHT22;4446;50.876;4.736;2023-04-10T09:57:20;15.60;99.90
8820;DHT22;4446;50.876;4.736;2023-04-10T09:59:48;15.60;99.90
8820;DHT22;4446;50.876;4.736;2023-04-10T10:02:16;15.70;99.90
8820;DHT22;4446;50.876;4.736;2023-04-10T10:04:45;15.90;99.90
8820;DHT22;4446;50.876;4.736;2023-04-10T10:07:14;16.10;99.90
8820;DHT22;4446;50.876;4.736;2023-04-10T10:09:41;16.00;99.90
8820;DHT22;4446;50.876;4.736;2023-04-10T10:12:10;16.10;99.90
8820;DHT22;4446;50.876;4.736;2023-04-10T10:14:43;16.40;99.90
8820;DHT22;4446;50.876;4.736;2023-04-10T10:17:14;16.70;99.90
8820;DHT22;4446;50.876;4.736;2023-04-10T10:19:51;17.00;99.90
8820;DHT22;4446;50.876;4.736;2023-04-10T10:22:20;17.10;99.90
8820;DHT22;4446;50.876;4.736;2023-04-10T10:24:49;17.20;99.90
8820;DHT22;4446;50.876;4.736;2023-04-10T10:27:22;17.00;99.90
8820;DHT22;4446;50.876;4.736;2023-04-10T10:29:52;17.00;99.90
8820;DHT22;4446;50.876;4.736;2023-04-10T10:32:20;17.00;99.90
8820;DHT22;4446;50.876;4.736;2023-04-10T10:34:48;17.10;99.90
8820;DHT22;4446;50.876;4.736;2023-04-10T10:37:17;17.20;99.90
8820;DHT22;4446;50.876;4.736;2023-04-10T10:39:51;17.20;99.90
8820;DHT22;4446;50.876;4.736;2023-04-10T10:42:24;17.30;99.90
8820;DHT22;4446;50.876;4.736;2023-04-10T10:44:59;17.60;99.90
8820;DHT22;4446;50.876;4.736;2023-04-10T10:47:35;17.70;99.90
8820;DHT22;4446;50.876;4.736;2023-04-10T10:50:05;17.80;99.90
8820;DHT22;4446;50.876;4.736;2023-04-10T10:52:45;17.90;99.90
8820;DHT22;4446;50.876;4.736;2023-04-10T10:55:32;18.00;99.90
8820;DHT22;4446;50.876;4.736;2023-04-10T10:58:04;18.20;99.90
8820;DHT22;4446;50.876;4.736;2023-04-10T11:01:06;18.40;99.90
8820;DHT22;4446;50.876;4.736;2023-04-10T11:03:34;18.50;99.90
8820;DHT22;4446;50.876;4.736;2023-04-10T11:06:03;18.70;99.90
8820;DHT22;4446;50.876;4.736;2023-04-10T11:08:35;18.70;99.90
8820;DHT22;4446;50.876;4.736;2023-04-10T11:11:05;18.80;99.90
8820;DHT22;4446;50.876;4.736;2023-04-10T11:13:34;18.80;99.90
8820;DHT22;4446;50.876;4.736;2023-04-10T11:16:02;18.80;99.90
8820;DHT22;4446;50.876;4.736;2023-04-10T11:19:02;18.70;99.90
8820;DHT22;4446;50.876;4.736;2023-04-10T11:21:29;18.60;99.90
8820;DHT22;4446;50.876;4.736;2023-04-10T11:24:04;18.60;99.90
8820;DHT22;4446;50.876;4.736;2023-04-10T11:26:38;18.70;99.90
8820;DHT22;4446;50.876;4.736;2023-04-10T11:29:31;18.70;99.90
8820;DHT22;4446;50.876;4.736;2023-04-10T11:32:00;18.70;99.90
8820;DHT22;4446;50.876;4.736;2023-04-10T11:34:29;18.70;99.90
8820;DHT22;4446;50.876;4.736;2023-04-10T11:36:58;18.50;99.90
8820;DHT22;4446;50.876;4.736;2023-04-10T11:39:27;18.50;99.90
8820;DHT22;4446;50.876;4.736;2023-04-10T11:41:55;18.60;99.90
8820;DHT22;4446;50.876;4.736;2023-04-10T11:44:27;18.70;99.90
8820;DHT22;4446;50.876;4.736;2023-04-10T11:46:54;18.80;99.90
8820;DHT22;4446;50.876;4.736;2023-04-10T11:49:23;18.90;99.90
8820;DHT22;4446;50.876;4.736;2023-04-10T11:51:52;19.00;99.90
8820;DHT22;4446;50.876;4.736;2023-04-10T11:54:20;19.20;99.90
8820;DHT22;4446;50.876;4.736;2023-04-10T11:56:57;19.30;99.90
8820;DHT22;4446;50.876;4.736;2023-04-10T11:59:24;19.30;99.90
8820;DHT22;4446;50.876;4.736;2023-04-10T12:01:53;19.00;99.90
8820;DHT22;4446;50.876;4.736;2023-04-10T12:04:22;18.90;99.90
8820;DHT22;4446;50.876;4.736;2023-04-10T12:06:52;18.90;99.90
8820;DHT22;4446;50.876;4.736;2023-04-10T12:09:20;18.80;99.90
8820;DHT22;4446;50.876;4.736;2023-04-10T12:11:51;18.80;99.90
8820;DHT22;4446;50.876;4.736;2023-04-10T12:14:19;18.80;99.90
8820;DHT22;4446;50.876;4.736;2023-04-10T12:16:46;19.00;99.90
8820;DHT22;4446;50.876;4.736;2023-04-10T12:19:14;19.20;99.90
8820;DHT22;4446;50.876;4.736;2023-04-10T12:21:43;19.30;99.90
8820;DHT22;4446;50.876;4.736;2023-04-10T12:24:12;19.20;99.90
8820;DHT22;4446;50.876;4.736;2023-04-10T12:26:59;19.20;99.90
8820;DHT22;4446;50.876;4.736;2023-04-10T12:29:27;19.10;99.90
8820;DHT22;4446;50.876;4.736;2023-04-10T12:31:54;18.90;99.90
8820;DHT22;4446;50.876;4.736;2023-04-10T12:34:21;18.70;99.90
8820;DHT22;4446;50.876;4.736;2023-04-10T12:36:51;18.50;99.90
8820;DHT22;4446;50.876;4.736;2023-04-10T12:39:24;18.40;99.90
8820;DHT22;4446;50.876;4.736;2023-04-10T12:41:51;18.40;99.90
8820;DHT22;4446;50.876;4.736;2023-04-10T12:44:18;18.30;99.90
8820;DHT22;4446;50.876;4.736;2023-04-10T12:46:45;18.20;99.90
8820;DHT22;4446;50.876;4.736;2023-04-10T12:49:13;18.10;99.90
8820;DHT22;4446;50.876;4.736;2023-04-10T12:51:41;18.10;99.90
8820;DHT22;4446;50.876;4.736;2023-04-10T12:54:09;18.20;99.90
8820;DHT22;4446;50.876;4.736;2023-04-10T12:56:52;18.20;99.90
8820;DHT22;4446;50.876;4.736;2023-04-10T12:59:19;18.20;99.90
8820;DHT22;4446;50.876;4.736;2023-04-10T13:01:46;18.00;99.90
8820;DHT22;4446;50.876;4.736;2023-04-10T13:04:13;18.00;99.90
8820;DHT22;4446;50.876;4.736;2023-04-10T13:06:44;18.00;99.90
8820;DHT22;4446;50.876;4.736;2023-04-10T13:09:11;18.00;99.90
8820;DHT22;4446;50.876;4.736;2023-04-10T13:11:39;18.10;99.90
8820;DHT22;4446;50.876;4.736;2023-04-10T13:14:08;18.00;99.90
8820;DHT22;4446;50.876;4.736;2023-04-10T13:16:36;17.90;99.90
8820;DHT22;4446;50.876;4.736;2023-04-10T13:19:02;17.80;99.90
8820;DHT22;4446;50.876;4.736;2023-04-10T13:21:29;17.80;99.90
8820;DHT22;4446;50.876;4.736;2023-04-10T13:23:57;17.80;99.90
8820;DHT22;4446;50.876;4.736;2023-04-10T13:26:24;17.70;99.90
8820;DHT22;4446;50.876;4.736;2023-04-10T13:28:51;17.60;99.90
8820;DHT22;4446;50.876;4.736;2023-04-10T13:31:20;17.60;99.90
8820;DHT22;4446;50.876;4.736;2023-04-10T13:33:47;17.60;99.90
8820;DHT22;4446;50.876;4.736;2023-04-10T13:36:14;17.40;99.90
8820;DHT22;4446;50.876;4.736;2023-04-10T13:38:41;17.40;99.90
8820;DHT22;4446;50.876;4.736;2023-04-10T13:41:09;17.30;99.90
8820;DHT22;4446;50.876;4.736;2023-04-10T13:43:36;17.20;99.90
8820;DHT22;4446;50.876;4.736;2023-04-10T13:46:05;17.30;99.90
8820;DHT22;4446;50.876;4.736;2023-04-10T13:48:33;17.20;99.90
8820;DHT22;4446;50.876;4.736;2023-04-10T13:51:05;17.40;99.90
8820;DHT22;4446;50.876;4.736;2023-04-10T13:53:32;17.60;99.90
8820;DHT22;4446;50.876;4.736;2023-04-10T13:55:59;17.60;99.90
8820;DHT22;4446;50.876;4.736;2023-04-10T13:58:26;17.70;99.90
8820;DHT22;4446;50.876;4.736;2023-04-10T14:00:56;17.70;99.90
8820;DHT22;4446;50.876;4.736;2023-04-10T14:03:23;17.90;99.90
8820;DHT22;4446;50.876;4.736;2023-04-10T14:05:52;17.80;99.90
8820;DHT22;4446;50.876;4.736;2023-04-10T14:08:19;17.90;99.90
8820;DHT22;4446;50.876;4.736;2023-04-10T14:10:46;17.80;99.90
8820;DHT22;4446;50.876;4.736;2023-04-10T14:13:15;17.80;99.90
8820;DHT22;4446;50.876;4.736;2023-04-10T14:15:42;17.80;99.90
8820;DHT22;4446;50.876;4.736;2023-04-10T14:18:09;17.70;99.90
8820;DHT22;4446;50.876;4.736;2023-04-10T14:20:36;17.70;99.90
8820;DHT22;4446;50.876;4.736;2023-04-10T14:23:04;17.90;99.90
8820;DHT22;4446;50.876;4.736;2023-04-10T14:25:31;18.00;99.90
8820;DHT22;4446;50.876;4.736;2023-04-10T14:27:58;18.00;99.90
8820;DHT22;4446;50.876;4.736;2023-04-10T14:30:25;17.70;99.90
8820;DHT22;4446;50.876;4.736;2023-04-10T14:32:55;17.70;99.90
8820;DHT22;4446;50.876;4.736;2023-04-10T14:35:23;17.80;99.90
8820;DHT22;4446;50.876;4.736;2023-04-10T14:37:50;17.80;99.90
8820;DHT22;4446;50.876;4.736;2023-04-10T14:40:18;17.80;99.90
8820;DHT22;4446;50.876;4.736;2023-04-10T14:42:45;17.80;99.90
8820;DHT22;4446;50.876;4.736;2023-04-10T14:45:12;17.70;99.90
8820;DHT22;4446;50.876;4.736;2023-04-10T14:47:39;17.80;99.90
8820;DHT22;4446;50.876;4.736;2023-04-10T14:50:07;17.70;99.90
8820;DHT22;4446;50.876;4.736;2023-04-10T14:52:34;17.70;99.90
8820;DHT22;4446;50.876;4.736;2023-04-10T14:55:01;17.70;99.90
8820;DHT22;4446;50.876;4.736;2023-04-10T14:57:29;17.50;99.90
8820;DHT22;4446;50.876;4.736;2023-04-10T14:59:56;17.30;99.90
8820;DHT22;4446;50.876;4.736;2023-04-10T15:02:25;17.20;99.90
8820;DHT22;4446;50.876;4.736;2023-04-10T15:04:53;17.10;99.90
8820;DHT22;4446;50.876;4.736;2023-04-10T15:07:20;17.10;99.90
8820;DHT22;4446;50.876;4.736;2023-04-10T15:09:48;16.90;99.90
8820;DHT22;4446;50.876;4.736;2023-04-10T15:12:15;16.70;99.90
8820;DHT22;4446;50.876;4.736;2023-04-10T15:14:46;16.60;99.90
8820;DHT22;4446;50.876;4.736;2023-04-10T15:17:13;16.50;99.90
8820;DHT22;4446;50.876;4.736;2023-04-10T15:19:40;16.40;99.90
8820;DHT22;4446;50.876;4.736;2023-04-10T15:22:07;16.20;99.90
8820;DHT22;4446;50.876;4.736;2023-04-10T15:24:34;15.90;99.90
8820;DHT22;4446;50.876;4.736;2023-04-10T15:27:01;15.70;99.90
8820;DHT22;4446;50.876;4.736;2023-04-10T15:29:28;15.60;99.90
8820;DHT22;4446;50.876;4.736;2023-04-10T15:31:58;15.50;99.90
8820;DHT22;4446;50.876;4.736;2023-04-10T15:34:25;15.40;99.90
8820;DHT22;4446;50.876;4.736;2023-04-10T15:36:52;15.40;99.90
8820;DHT22;4446;50.876;4.736;2023-04-10T15:39:19;15.40;99.90
8820;DHT22;4446;50.876;4.736;2023-04-10T15:41:46;15.40;99.90
8820;DHT22;4446;50.876;4.736;2023-04-10T15:44:14;15.40;99.90
8820;DHT22;4446;50.876;4.736;2023-04-10T15:46:41;15.30;99.90
8820;DHT22;4446;50.876;4.736;2023-04-10T15:49:10;15.30;99.90
8820;DHT22;4446;50.876;4.736;2023-04-10T15:51:37;15.00;99.90
8820;DHT22;4446;50.876;4.736;2023-04-10T15:54:04;14.90;99.90
8820;DHT22;4446;50.876;4.736;2023-04-10T15:56:31;14.80;99.90
8820;DHT22;4446;50.876;4.736;2023-04-10T15:58:58;14.80;99.90
8820;DHT22;4446;50.876;4.736;2023-04-10T16:01:25;14.70;99.90
8820;DHT22;4446;50.876;4.736;2023-04-10T16:03:52;14.60;99.90
8820;DHT22;4446;50.876;4.736;2023-04-10T16:06:20;14.60;99.90
8820;DHT22;4446;50.876;4.736;2023-04-10T16:08:50;14.50;99.90
8820;DHT22;4446;50.876;4.736;2023-04-10T16:11:17;14.50;99.90
8820;DHT22;4446;50.876;4.736;2023-04-10T16:13:44;14.50;99.90
8820;DHT22;4446;50.876;4.736;2023-04-10T16:16:13;14.40;99.90
8820;DHT22;4446;50.876;4.736;2023-04-10T16:18:39;14.40;99.90
8820;DHT22;4446;50.876;4.736;2023-04-10T16:21:09;14.30;99.90